sensor_id;sensor_type;location;lat;lon;timestamp;P1;durP1;ratioP1;P2;durP2;ratioP2
52534;SDS011;38443;53.164;5.802;2022-10-31T00:00:49;23.38;;;12.48;;
52534;SDS011;38443;53.164;5.802;2022-10-31T00:03:15;21.63;;;12.68;;
52534;SDS011;38443;53.164;5.802;2022-10-31T00:05:41;18.35;;;11.73;;
52534;SDS011;38443;53.164;5.802;2022-10-31T00:08:14;24.27;;;14.05;;
52534;SDS011;38443;53.164;5.802;2022-10-31T00:10:41;23.60;;;12.55;;
52534;SDS011;38443;53.164;5.802;2022-10-31T00:13:08;24.23;;;13.45;;
52534;SDS011;38443;53.164;5.802;2022-10-31T00:15:35;24.67;;;13.02;;
52534;SDS011;38443;53.164;5.802;2022-10-31T00:18:01;22.23;;;12.85;;
52534;SDS011;38443;53.164;5.802;2022-10-31T00:20:27;21.42;;;12.65;;
52534;SDS011;38443;53.164;5.802;2022-10-31T00:25:18;23.60;;;11.88;;
52534;SDS011;38443;53.164;5.802;2022-10-31T00:27:45;20.65;;;11.88;;
52534;SDS011;38443;53.164;5.802;2022-10-31T00:32:36;17.60;;;11.77;;
52534;SDS011;38443;53.164;5.802;2022-10-31T00:35:01;21.00;;;14.20;;
52534;SDS011;38443;53.164;5.802;2022-10-31T00:39:52;19.85;;;12.85;;
52534;SDS011;38443;53.164;5.802;2022-10-31T00:42:17;20.80;;;12.75;;
52534;SDS011;38443;53.164;5.802;2022-10-31T00:44:42;26.55;;;14.60;;
52534;SDS011;38443;53.164;5.802;2022-10-31T00:49:33;33.60;;;14.52;;
52534;SDS011;38443;53.164;5.802;2022-10-31T00:54:24;24.45;;;13.68;;
52534;SDS011;38443;53.164;5.802;2022-10-31T00:56:49;27.50;;;14.60;;
52534;SDS011;38443;53.164;5.802;2022-10-31T01:01:39;24.70;;;14.25;;
52534;SDS011;38443;53.164;5.802;2022-10-31T01:04:05;28.92;;;16.52;;
52534;SDS011;38443;53.164;5.802;2022-10-31T01:08:56;28.70;;;15.50;;
52534;SDS011;38443;53.164;5.802;2022-10-31T01:13:49;25.90;;;15.00;;
52534;SDS011;38443;53.164;5.802;2022-10-31T01:16:16;26.92;;;14.95;;
52534;SDS011;38443;53.164;5.802;2022-10-31T01:18:43;24.05;;;14.38;;
52534;SDS011;38443;53.164;5.802;2022-10-31T01:23:39;27.02;;;14.43;;
52534;SDS011;38443;53.164;5.802;2022-10-31T01:28:33;27.40;;;14.20;;
52534;SDS011;38443;53.164;5.802;2022-10-31T01:31:00;24.02;;;14.95;;
52534;SDS011;38443;53.164;5.802;2022-10-31T01:33:29;19.67;;;14.10;;
52534;SDS011;38443;53.164;5.802;2022-10-31T01:38:20;25.50;;;15.20;;
52534;SDS011;38443;53.164;5.802;2022-10-31T01:43:14;24.00;;;15.52;;
52534;SDS011;38443;53.164;5.802;2022-10-31T01:45:40;23.35;;;14.75;;
52534;SDS011;38443;53.164;5.802;2022-10-31T01:48:11;21.55;;;14.05;;
52534;SDS011;38443;53.164;5.802;2022-10-31T01:50:40;26.73;;;14.57;;
52534;SDS011;38443;53.164;5.802;2022-10-31T01:53:07;20.90;;;14.15;;
52534;SDS011;38443;53.164;5.802;2022-10-31T01:55:35;23.08;;;14.95;;
52534;SDS011;38443;53.164;5.802;2022-10-31T01:58:10;24.77;;;14.50;;
52534;SDS011;38443;53.164;5.802;2022-10-31T02:00:39;20.85;;;15.23;;
52534;SDS011;38443;53.164;5.802;2022-10-31T02:03:08;22.13;;;14.63;;
52534;SDS011;38443;53.164;5.802;2022-10-31T02:05:34;22.75;;;14.63;;
52534;SDS011;38443;53.164;5.802;2022-10-31T02:10:35;23.20;;;14.38;;
52534;SDS011;38443;53.164;5.802;2022-10-31T02:13:02;22.67;;;13.98;;
52534;SDS011;38443;53.164;5.802;2022-10-31T02:15:31;22.10;;;14.30;;
52534;SDS011;38443;53.164;5.802;2022-10-31T02:17:57;20.88;;;14.57;;
52534;SDS011;38443;53.164;5.802;2022-10-31T02:20:24;20.98;;;13.80;;
52534;SDS011;38443;53.164;5.802;2022-10-31T02:31:35;22.90;;;13.68;;
52534;SDS011;38443;53.164;5.802;2022-10-31T02:34:25;21.42;;;14.13;;
52534;SDS011;38443;53.164;5.802;2022-10-31T02:37:09;19.85;;;14.07;;
52534;SDS011;38443;53.164;5.802;2022-10-31T02:39:58;25.67;;;16.20;;
52534;SDS011;38443;53.164;5.802;2022-10-31T02:43:05;24.93;;;16.37;;
52534;SDS011;38443;53.164;5.802;2022-10-31T02:46:22;24.25;;;15.45;;
52534;SDS011;38443;53.164;5.802;2022-10-31T02:48:44;22.90;;;14.27;;
52534;SDS011;38443;53.164;5.802;2022-10-31T02:51:13;26.27;;;15.95;;
52534;SDS011;38443;53.164;5.802;2022-10-31T02:53:39;23.05;;;15.68;;
52534;SDS011;38443;53.164;5.802;2022-10-31T02:58:42;26.65;;;16.27;;
52534;SDS011;38443;53.164;5.802;2022-10-31T03:08:55;26.92;;;15.45;;
52534;SDS011;38443;53.164;5.802;2022-10-31T03:11:38;24.55;;;15.77;;
52534;SDS011;38443;53.164;5.802;2022-10-31T03:14:19;27.27;;;17.15;;
52534;SDS011;38443;53.164;5.802;2022-10-31T03:16:52;24.45;;;14.75;;
52534;SDS011;38443;53.164;5.802;2022-10-31T03:19:23;24.65;;;16.15;;
52534;SDS011;38443;53.164;5.802;2022-10-31T03:21:55;23.35;;;16.15;;
52534;SDS011;38443;53.164;5.802;2022-10-31T03:24:22;24.83;;;15.77;;
52534;SDS011;38443;53.164;5.802;2022-10-31T03:26:52;23.77;;;15.13;;
52534;SDS011;38443;53.164;5.802;2022-10-31T03:29:22;24.38;;;14.43;;
52534;SDS011;38443;53.164;5.802;2022-10-31T03:31:57;21.85;;;13.90;;
52534;SDS011;38443;53.164;5.802;2022-10-31T03:34:26;24.45;;;15.25;;
52534;SDS011;38443;53.164;5.802;2022-10-31T03:36:54;21.88;;;13.35;;
52534;SDS011;38443;53.164;5.802;2022-10-31T03:39:22;22.77;;;15.05;;
52534;SDS011;38443;53.164;5.802;2022-10-31T03:41:59;23.80;;;14.48;;
52534;SDS011;38443;53.164;5.802;2022-10-31T03:44:28;20.98;;;13.93;;
52534;SDS011;38443;53.164;5.802;2022-10-31T03:46:55;21.58;;;14.50;;
52534;SDS011;38443;53.164;5.802;2022-10-31T03:51:48;23.45;;;15.48;;
52534;SDS011;38443;53.164;5.802;2022-10-31T03:57:14;26.10;;;16.05;;
52534;SDS011;38443;53.164;5.802;2022-10-31T03:59:57;23.70;;;16.13;;
52534;SDS011;38443;53.164;5.802;2022-10-31T04:02:34;22.30;;;14.63;;
52534;SDS011;38443;53.164;5.802;2022-10-31T04:05:04;26.95;;;16.50;;
52534;SDS011;38443;53.164;5.802;2022-10-31T04:07:32;24.15;;;15.32;;
52534;SDS011;38443;53.164;5.802;2022-10-31T04:10:03;25.23;;;14.43;;
52534;SDS011;38443;53.164;5.802;2022-10-31T04:12:32;22.08;;;14.68;;
52534;SDS011;38443;53.164;5.802;2022-10-31T04:14:59;24.55;;;15.20;;
52534;SDS011;38443;53.164;5.802;2022-10-31T04:17:28;22.75;;;15.88;;
52534;SDS011;38443;53.164;5.802;2022-10-31T04:19:58;24.92;;;15.73;;
52534;SDS011;38443;53.164;5.802;2022-10-31T04:22:25;24.92;;;16.60;;
52534;SDS011;38443;53.164;5.802;2022-10-31T04:27:15;23.23;;;15.37;;
52534;SDS011;38443;53.164;5.802;2022-10-31T04:32:06;25.53;;;16.17;;
52534;SDS011;38443;53.164;5.802;2022-10-31T04:36:57;23.95;;;15.48;;
52534;SDS011;38443;53.164;5.802;2022-10-31T04:39:22;26.67;;;15.48;;
52534;SDS011;38443;53.164;5.802;2022-10-31T04:44:13;21.45;;;14.07;;
52534;SDS011;38443;53.164;5.802;2022-10-31T04:49:03;22.13;;;14.13;;
52534;SDS011;38443;53.164;5.802;2022-10-31T04:53:54;23.73;;;13.98;;
